Time;durP1;ratioP1;P1;durP2;ratioP2;P2;SDS_P1;SDS_P2;PMS_P1;PMS_P2;Temp;Humidity;BMP_temperature;BMP_pressure;BME280_temperature;BME280_humidity;BME280_pressure;Samples;Min_cycle;Max_cycle;Signal;HPM_P1;HPM_P2
2021/09/25 00:01:42;;;;;;;;;;;14.60;58.30;;;;;;5016461;28;88586;-52
2021/09/25 00:04:08;;;;;;;;;;;14.60;58.40;;;;;;5015900;28;88203;-55
2021/09/25 00:06:33;;;;;;;;;;;14.60;58.40;;;;;;5017951;28;86459;-52
2021/09/25 00:08:59;;;;;;;;;;;14.60;58.40;;;;;;5018811;28;87165;-53
2021/09/25 00:11:26;;;;;;;;;;;14.60;58.30;;;;;;5019255;28;89428;-56
2021/09/25 00:13:52;;;;;;;;;;;14.60;58.60;;;;;;5018591;28;88149;-52
2021/09/25 00:16:18;;;;;;;;;;;14.60;58.40;;;;;;5019420;28;87858;-52
2021/09/25 00:18:43;;;;;;;;;;;14.50;58.30;;;;;;5021879;28;87541;-54
2021/09/25 00:21:09;;;;;;;;;;;14.50;58.40;;;;;;5016064;28;87943;-53
2021/09/25 00:23:34;;;;;;;;;;;14.50;58.40;;;;;;5015696;28;88176;-54
2021/09/25 00:26:00;;;;;;;;;;;14.50;58.40;;;;;;5017360;28;87221;-51
2021/09/25 00:28:25;;;;;;;;;;;14.50;58.50;;;;;;5018632;28;88045;-54
2021/09/25 00:30:51;;;;;;;;;;;14.50;58.50;;;;;;5019823;28;88558;-54
2021/09/25 00:33:16;;;;;;;;;;;14.50;58.50;;;;;;5016877;28;88129;-55
2021/09/25 00:35:42;;;;;;;;;;;14.50;58.60;;;;;;5015476;28;87206;-51
2021/09/25 00:38:07;;;;;;;;;;;14.50;58.60;;;;;;5018021;28;89659;-53
2021/09/25 00:40:33;;;;;;;;;;;14.50;58.60;;;;;;5024496;28;87197;-53
2021/09/25 00:42:58;;;;;;;;;;;14.50;58.50;;;;;;5022451;28;87907;-54
2021/09/25 00:45:26;;;;;;;;;;;14.40;58.50;;;;;;5021249;28;87884;-52
2021/09/25 00:47:51;;;;;;;;;;;14.40;58.50;;;;;;5022502;28;89135;-53
2021/09/25 00:50:17;;;;;;;;;;;14.40;59.10;;;;;;5021051;28;88726;-53
2021/09/25 00:52:42;;;;;;;;;;;14.40;58.50;;;;;;5018274;28;88732;-52
2021/09/25 00:55:08;;;;;;;;;;;14.40;58.50;;;;;;5019884;28;87527;-55
2021/09/25 00:57:34;;;;;;;;;;;14.40;58.60;;;;;;5019161;28;90327;-51
2021/09/25 01:00:00;;;;;;;;;;;14.40;58.60;;;;;;5020407;28;87254;-52
2021/09/25 01:02:26;;;;;;;;;;;14.40;58.70;;;;;;5023015;28;88064;-50
2021/09/25 01:04:51;;;;;;;;;;;14.40;58.70;;;;;;5021861;28;87227;-54
2021/09/25 01:07:17;;;;;;;;;;;14.30;58.60;;;;;;5022022;28;88060;-52
2021/09/25 01:09:43;;;;;;;;;;;14.30;58.60;;;;;;5018378;28;88180;-55
2021/09/25 01:12:08;;;;;;;;;;;14.30;58.60;;;;;;5018728;28;87121;-54
2021/09/25 01:14:34;;;;;;;;;;;14.30;58.70;;;;;;5019656;28;89308;-54
2021/09/25 01:17:04;;;;;;;;;;;14.30;58.70;;;;;;5020077;28;89932;-53
2021/09/25 01:19:29;;;;;;;;;;;14.30;58.60;;;;;;5022144;28;87703;-52
2021/09/25 01:21:55;;;;;;;;;;;14.30;58.80;;;;;;5018329;28;88851;-51
2021/09/25 01:24:20;;;;;;;;;;;14.30;58.70;;;;;;5020124;28;88220;-56
2021/09/25 01:26:46;;;;;;;;;;;14.30;58.80;;;;;;5018118;28;89036;-54
2021/09/25 01:29:11;;;;;;;;;;;14.20;58.70;;;;;;5017941;28;88113;-55
2021/09/25 01:31:37;;;;;;;;;;;14.20;58.70;;;;;;5019560;28;87124;-55
2021/09/25 01:34:02;;;;;;;;;;;14.20;58.70;;;;;;5020617;28;87603;-55
2021/09/25 01:36:28;;;;;;;;;;;14.20;58.80;;;;;;5021513;28;87966;-55
2021/09/25 01:38:54;;;;;;;;;;;14.20;58.90;;;;;;5020462;28;88103;-54
2021/09/25 01:41:19;;;;;;;;;;;14.10;58.90;;;;;;5017499;28;89134;-52
2021/09/25 01:43:45;;;;;;;;;;;14.10;58.90;;;;;;5018746;28;87036;-55
2021/09/25 01:46:10;;;;;;;;;;;14.10;58.90;;;;;;5022546;28;87191;-51
2021/09/25 01:48:36;;;;;;;;;;;14.10;59.00;;;;;;5019493;28;88100;-51
2021/09/25 01:51:01;;;;;;;;;;;14.10;59.10;;;;;;5021517;28;89933;-52
2021/09/25 01:53:27;;;;;;;;;;;14.00;59.10;;;;;;5019639;28;87458;-52
2021/09/25 01:55:52;;;;;;;;;;;14.10;59.00;;;;;;5017220;28;89334;-51
2021/09/25 01:58:19;;;;;;;;;;;14.10;59.00;;;;;;5018816;28;87147;-54
2021/09/25 02:00:44;;;;;;;;;;;14.00;59.10;;;;;;5019133;28;89573;-53
2021/09/25 02:03:11;;;;;;;;;;;14.00;59.00;;;;;;5019962;28;87795;-54
2021/09/25 02:05:37;;;;;;;;;;;14.00;59.10;;;;;;5022397;28;87196;-53
2021/09/25 02:08:04;;;;;;;;;;;14.00;59.10;;;;;;5019879;28;87003;-53
2021/09/25 02:10:30;;;;;;;;;;;14.00;59.10;;;;;;5016973;28;87655;-53
2021/09/25 02:12:55;;;;;;;;;;;14.00;59.10;;;;;;5018117;28;88058;-52
2021/09/25 02:15:21;;;;;;;;;;;13.90;59.10;;;;;;5016825;28;89146;-52
2021/09/25 02:17:46;;;;;;;;;;;13.90;59.10;;;;;;5018919;28;87268;-53
2021/09/25 02:20:12;;;;;;;;;;;13.90;59.10;;;;;;5020246;28;87162;-55
2021/09/25 02:22:38;;;;;;;;;;;13.90;59.10;;;;;;5020703;28;88334;-54
2021/09/25 02:25:05;;;;;;;;;;;13.90;59.10;;;;;;5021530;28;87622;-56
2021/09/25 02:27:30;;;;;;;;;;;13.90;59.20;;;;;;5024140;28;87180;-55
2021/09/25 02:29:56;;;;;;;;;;;13.90;59.10;;;;;;5019309;28;88355;-56
2021/09/25 02:32:21;;;;;;;;;;;13.90;59.10;;;;;;5017441;28;87754;-54
2021/09/25 02:34:47;;;;;;;;;;;13.90;59.20;;;;;;5017194;28;90052;-55
2021/09/25 02:37:12;;;;;;;;;;;13.80;59.20;;;;;;5017757;28;87161;-55
2021/09/25 02:39:38;;;;;;;;;;;13.90;59.10;;;;;;5018332;28;89349;-54
2021/09/25 02:42:04;;;;;;;;;;;13.80;59.20;;;;;;5019651;28;87706;-55
2021/09/25 02:44:30;;;;;;;;;;;13.80;59.10;;;;;;5019334;28;87154;-55
2021/09/25 02:46:55;;;;;;;;;;;13.80;59.10;;;;;;5020723;28;87796;-55
2021/09/25 02:49:21;;;;;;;;;;;13.80;59.20;;;;;;5022515;28;88082;-53
2021/09/25 02:51:47;;;;;;;;;;;13.80;59.10;;;;;;5019454;28;88621;-56
2021/09/25 02:54:13;;;;;;;;;;;13.80;59.20;;;;;;5019913;28;89509;-54
2021/09/25 02:56:38;;;;;;;;;;;13.80;59.20;;;;;;5018658;28;88015;-53
2021/09/25 02:59:05;;;;;;;;;;;13.70;59.20;;;;;;5016951;28;87153;-55
2021/09/25 03:01:30;;;;;;;;;;;13.70;59.40;;;;;;5016417;28;89737;-53
2021/09/25 03:03:56;;;;;;;;;;;13.70;59.40;;;;;;5017241;28;88123;-52
2021/09/25 03:06:22;;;;;;;;;;;13.70;59.30;;;;;;5019246;28;89046;-54
2021/09/25 03:08:48;;;;;;;;;;;13.70;59.30;;;;;;5018699;28;88574;-54
2021/09/25 03:11:14;;;;;;;;;;;13.70;59.30;;;;;;5023245;28;87235;-55
2021/09/25 03:13:39;;;;;;;;;;;13.70;59.30;;;;;;5019759;28;88817;-54
2021/09/25 03:16:05;;;;;;;;;;;13.70;59.40;;;;;;5016304;28;87748;-55
2021/09/25 03:18:30;;;;;;;;;;;13.60;59.40;;;;;;5016948;28;88835;-56
2021/09/25 03:20:56;;;;;;;;;;;13.60;59.50;;;;;;5018489;28;86873;-54
2021/09/25 03:23:21;;;;;;;;;;;13.60;59.50;;;;;;5018568;28;87128;-53
2021/09/25 03:25:47;;;;;;;;;;;13.60;59.40;;;;;;5019420;28;87200;-55
2021/09/25 03:28:12;;;;;;;;;;;13.60;59.40;;;;;;5019538;28;89790;-55
2021/09/25 03:30:38;;;;;;;;;;;13.60;59.40;;;;;;5017877;28;88018;-53
2021/09/25 03:33:04;;;;;;;;;;;13.60;59.40;;;;;;5018700;28;87157;-56
2021/09/25 03:35:30;;;;;;;;;;;13.50;59.40;;;;;;5016269;28;87239;-56
2021/09/25 03:37:55;;;;;;;;;;;13.50;59.40;;;;;;5016530;28;87441;-54
2021/09/25 03:40:21;;;;;;;;;;;13.60;59.40;;;;;;5016636;28;88135;-56
2021/09/25 03:42:47;;;;;;;;;;;13.50;59.50;;;;;;5018270;28;87286;-53
2021/09/25 03:45:13;;;;;;;;;;;13.50;59.60;;;;;;5018877;28;89134;-52
2021/09/25 03:47:38;;;;;;;;;;;13.50;59.60;;;;;;5019199;28;87964;-54
2021/09/25 03:50:04;;;;;;;;;;;13.50;59.40;;;;;;5019980;28;88790;-56
2021/09/25 03:52:30;;;;;;;;;;;13.40;59.50;;;;;;5016974;28;89081;-54
2021/09/25 03:54:55;;;;;;;;;;;13.50;59.60;;;;;;5018114;28;89693;-54
2021/09/25 03:57:21;;;;;;;;;;;13.40;59.50;;;;;;5016769;28;89192;-56
2021/09/25 03:59:47;;;;;;;;;;;13.40;59.70;;;;;;5017733;28;88198;-55
2021/09/25 04:02:12;;;;;;;;;;;13.40;59.60;;;;;;5019201;28;87139;-55
2021/09/25 04:04:38;;;;;;;;;;;13.40;59.60;;;;;;5019542;28;87584;-55
2021/09/25 04:07:03;;;;;;;;;;;13.40;59.60;;;;;;5015981;28;88090;-54
2021/09/25 04:09:29;;;;;;;;;;;13.40;59.70;;;;;;5016736;28;86497;-55
2021/09/25 04:11:54;;;;;;;;;;;13.40;59.60;;;;;;5018049;28;87213;-55
2021/09/25 04:14:20;;;;;;;;;;;13.40;59.60;;;;;;5024856;28;88383;-55
2021/09/25 04:16:46;;;;;;;;;;;13.30;59.70;;;;;;5021531;28;88572;-54
2021/09/25 04:19:12;;;;;;;;;;;13.30;59.70;;;;;;5021800;28;88033;-56
2021/09/25 04:21:37;;;;;;;;;;;13.30;59.80;;;;;;5022763;28;87234;-55
2021/09/25 04:24:03;;;;;;;;;;;13.30;59.80;;;;;;5022413;28;87926;-52
2021/09/25 04:26:29;;;;;;;;;;;13.30;59.80;;;;;;5019098;28;88156;-53
2021/09/25 04:28:57;;;;;;;;;;;13.20;59.70;;;;;;5019361;28;87192;-56
2021/09/25 04:31:22;;;;;;;;;;;13.20;59.70;;;;;;5021148;28;89278;-53
2021/09/25 04:33:48;;;;;;;;;;;13.20;59.90;;;;;;5019365;28;87385;-54
2021/09/25 04:36:13;;;;;;;;;;;13.20;59.90;;;;;;5022401;28;87129;-51
2021/09/25 04:38:39;;;;;;;;;;;13.30;59.80;;;;;;5020186;28;90299;-56
2021/09/25 04:41:04;;;;;;;;;;;13.20;59.70;;;;;;5021304;28;88154;-54
2021/09/25 04:43:30;;;;;;;;;;;13.20;59.80;;;;;;5023379;28;88449;-52
2021/09/25 04:45:55;;;;;;;;;;;13.20;59.90;;;;;;5019969;28;89884;-55
2021/09/25 04:48:21;;;;;;;;;;;13.20;59.70;;;;;;5020747;28;87938;-52
2021/09/25 04:50:47;;;;;;;;;;;13.20;59.70;;;;;;5018640;28;88685;-53
2021/09/25 04:53:13;;;;;;;;;;;13.10;59.80;;;;;;5019391;28;87214;-54
2021/09/25 04:55:39;;;;;;;;;;;13.20;59.90;;;;;;5019735;28;87247;-53
2021/09/25 04:58:05;;;;;;;;;;;13.20;59.80;;;;;;5023155;28;87512;-55
2021/09/25 05:00:30;;;;;;;;;;;13.20;59.80;;;;;;5019141;28;87241;-55
2021/09/25 05:02:56;;;;;;;;;;;13.20;59.90;;;;;;5019556;28;87135;-54
2021/09/25 05:05:22;;;;;;;;;;;13.10;59.80;;;;;;5019345;28;90396;-53
2021/09/25 05:07:47;;;;;;;;;;;13.10;59.80;;;;;;5020653;28;87152;-53
2021/09/25 05:10:13;;;;;;;;;;;13.10;59.80;;;;;;5021495;28;87215;-54
2021/09/25 05:12:38;;;;;;;;;;;13.10;59.80;;;;;;5022551;28;87699;-54
2021/09/25 05:15:04;;;;;;;;;;;13.10;59.90;;;;;;5019733;28;88310;-55
2021/09/25 05:17:30;;;;;;;;;;;13.10;59.80;;;;;;5018173;28;87581;-55
2021/09/25 05:19:55;;;;;;;;;;;13.10;59.80;;;;;;5021373;28;89427;-56
2021/09/25 05:22:21;;;;;;;;;;;13.10;60.00;;;;;;5019903;28;86896;-54
2021/09/25 05:24:47;;;;;;;;;;;13.10;59.80;;;;;;5019262;28;88266;-52
2021/09/25 05:27:13;;;;;;;;;;;13.10;59.90;;;;;;5020754;28;87142;-52
2021/09/25 05:29:38;;;;;;;;;;;13.10;59.80;;;;;;5020915;28;88106;-53
2021/09/25 05:32:05;;;;;;;;;;;13.20;59.60;;;;;;5021946;28;88186;-57
2021/09/25 05:34:30;;;;;;;;;;;13.20;59.40;;;;;;5021967;28;87159;-54
2021/09/25 05:36:57;;;;;;;;;;;13.20;59.40;;;;;;5020137;28;88030;-54
2021/09/25 05:39:23;;;;;;;;;;;13.20;59.30;;;;;;5018789;28;88606;-56
2021/09/25 05:41:48;;;;;;;;;;;13.20;59.20;;;;;;5020205;28;88102;-55
2021/09/25 05:44:14;;;;;;;;;;;13.20;59.10;;;;;;5017811;28;88326;-53
2021/09/25 05:46:39;;;;;;;;;;;13.20;59.10;;;;;;5018861;28;86457;-55
2021/09/25 05:49:05;;;;;;;;;;;13.20;59.20;;;;;;5019576;28;87208;-55
2021/09/25 05:51:30;;;;;;;;;;;13.20;59.10;;;;;;5020436;28;87624;-55
2021/09/25 05:53:56;;;;;;;;;;;13.20;59.20;;;;;;5021188;28;88097;-55
2021/09/25 05:56:21;;;;;;;;;;;13.30;59.00;;;;;;5019197;28;88956;-53
2021/09/25 05:58:47;;;;;;;;;;;13.20;59.20;;;;;;5017189;28;89378;-55
2021/09/25 06:01:13;;;;;;;;;;;13.20;59.50;;;;;;5018791;28;87235;-53
2021/09/25 06:03:38;;;;;;;;;;;13.20;59.30;;;;;;5022292;28;89397;-53
2021/09/25 06:06:04;;;;;;;;;;;13.30;59.10;;;;;;5020896;28;87157;-55
2021/09/25 06:08:29;;;;;;;;;;;13.30;59.10;;;;;;5021771;28;88777;-55
2021/09/25 06:10:55;;;;;;;;;;;13.30;59.10;;;;;;5021764;28;87937;-54
2021/09/25 06:13:20;;;;;;;;;;;13.30;59.10;;;;;;5021705;28;88752;-52
2021/09/25 06:15:46;;;;;;;;;;;13.30;59.10;;;;;;5018817;28;88818;-54
2021/09/25 06:18:12;;;;;;;;;;;13.30;59.10;;;;;;5016406;28;88357;-54
2021/09/25 06:20:39;;;;;;;;;;;13.30;59.10;;;;;;5017558;28;87150;-53
2021/09/25 06:23:04;;;;;;;;;;;13.30;59.30;;;;;;5020342;28;87164;-54
2021/09/25 06:25:30;;;;;;;;;;;13.20;59.30;;;;;;5018946;28;87231;-53
2021/09/25 06:27:55;;;;;;;;;;;13.20;59.40;;;;;;5020200;28;87824;-56
2021/09/25 06:30:21;;;;;;;;;;;13.20;59.70;;;;;;5020844;28;90062;-54
2021/09/25 06:32:47;;;;;;;;;;;13.10;59.60;;;;;;5019392;28;87198;-52
2021/09/25 06:35:13;;;;;;;;;;;13.20;59.70;;;;;;5019488;28;88386;-53
2021/09/25 06:37:38;;;;;;;;;;;13.20;59.50;;;;;;5018663;28;88331;-53
2021/09/25 06:40:05;;;;;;;;;;;13.30;59.30;;;;;;5016637;28;88834;-55
2021/09/25 06:42:30;;;;;;;;;;;13.20;59.30;;;;;;5016270;28;89519;-56
2021/09/25 06:44:56;;;;;;;;;;;13.30;59.50;;;;;;5019991;28;88245;-55
2021/09/25 06:47:21;;;;;;;;;;;13.30;59.50;;;;;;5018895;28;87852;-55
2021/09/25 06:49:47;;;;;;;;;;;13.20;59.50;;;;;;5018859;28;88309;-54
2021/09/25 06:52:13;;;;;;;;;;;13.20;59.40;;;;;;5019994;28;87182;-54
2021/09/25 06:54:39;;;;;;;;;;;13.30;59.40;;;;;;5021035;28;88975;-56
2021/09/25 06:57:08;;;;;;;;;;;13.30;59.60;;;;;;5019954;28;89691;-53
2021/09/25 06:59:33;;;;;;;;;;;13.20;59.80;;;;;;5021433;28;88194;-54
2021/09/25 07:01:59;;;;;;;;;;;13.30;59.70;;;;;;5019702;28;88778;-53
2021/09/25 07:04:25;;;;;;;;;;;13.20;59.80;;;;;;5016697;28;88121;-53
2021/09/25 07:06:50;;;;;;;;;;;13.20;59.50;;;;;;5019503;28;88121;-52
2021/09/25 07:09:16;;;;;;;;;;;13.30;59.70;;;;;;5018171;28;87722;-54
2021/09/25 07:11:41;;;;;;;;;;;13.30;59.60;;;;;;5019523;28;87145;-55
2021/09/25 07:14:07;;;;;;;;;;;13.30;59.60;;;;;;5020733;28;89093;-54
2021/09/25 07:16:32;;;;;;;;;;;13.30;59.60;;;;;;5017758;28;88119;-52
2021/09/25 07:18:58;;;;;;;;;;;13.30;59.60;;;;;;5016359;28;87244;-55
2021/09/25 07:21:23;;;;;;;;;;;13.20;59.90;;;;;;5017794;28;87492;-53
2021/09/25 07:23:49;;;;;;;;;;;13.20;59.90;;;;;;5019109;28;86870;-54
2021/09/25 07:26:14;;;;;;;;;;;13.30;59.70;;;;;;5018611;28;87148;-54
2021/09/25 07:28:40;;;;;;;;;;;13.20;59.80;;;;;;5022365;28;87353;-54
2021/09/25 07:31:07;;;;;;;;;;;13.30;59.90;;;;;;5019588;28;88721;-52
2021/09/25 07:33:32;;;;;;;;;;;13.30;59.90;;;;;;5020404;28;87957;-54
2021/09/25 07:36:00;;;;;;;;;;;13.30;59.90;;;;;;5019840;28;88114;-55
2021/09/25 07:38:25;;;;;;;;;;;13.20;59.80;;;;;;5018798;28;87124;-52
2021/09/25 07:40:52;;;;;;;;;;;13.30;59.90;;;;;;5020012;28;87700;-52
2021/09/25 07:43:18;;;;;;;;;;;13.30;59.90;;;;;;5018644;28;88245;-51
2021/09/25 07:45:44;;;;;;;;;;;13.30;60.00;;;;;;5018811;28;87117;-54
2021/09/25 07:48:09;;;;;;;;;;;13.30;60.10;;;;;;5023005;28;87401;-55
2021/09/25 07:50:35;;;;;;;;;;;13.30;60.30;;;;;;5024895;28;87718;-54
2021/09/25 07:53:00;;;;;;;;;;;13.30;60.20;;;;;;5022698;28;89257;-52
2021/09/25 07:55:26;;;;;;;;;;;13.20;60.30;;;;;;5018815;28;89303;-55
2021/09/25 07:57:52;;;;;;;;;;;13.30;60.30;;;;;;5020078;28;87203;-54
2021/09/25 08:00:17;;;;;;;;;;;13.30;60.60;;;;;;5020117;28;87662;-53
2021/09/25 08:02:43;;;;;;;;;;;13.30;60.60;;;;;;5020180;28;88087;-52
2021/09/25 08:05:09;;;;;;;;;;;13.30;60.50;;;;;;5021332;28;87219;-53
2021/09/25 08:07:35;;;;;;;;;;;13.30;60.60;;;;;;5021730;28;87816;-52
2021/09/25 08:10:01;;;;;;;;;;;13.30;60.50;;;;;;5021031;28;88074;-53
2021/09/25 08:12:26;;;;;;;;;;;13.30;60.60;;;;;;5025678;28;86430;-54
2021/09/25 08:14:52;;;;;;;;;;;13.30;60.50;;;;;;5023542;28;88368;-50
2021/09/25 08:17:17;;;;;;;;;;;13.30;60.50;;;;;;5021117;28;87598;-51
2021/09/25 08:19:43;;;;;;;;;;;13.40;60.50;;;;;;5018193;28;88518;-59
2021/09/25 08:22:08;;;;;;;;;;;13.40;63.20;;;;;;5019722;28;89454;-53
2021/09/25 08:24:34;;;;;;;;;;;13.40;63.70;;;;;;5021345;28;87157;-50
2021/09/25 08:27:00;;;;;;;;;;;13.40;63.10;;;;;;5022675;28;87590;-53
2021/09/25 08:29:25;;;;;;;;;;;13.40;62.60;;;;;;5022482;28;88684;-52
2021/09/25 08:31:51;;;;;;;;;;;13.50;62.70;;;;;;5026300;28;87114;-51
2021/09/25 08:34:18;;;;;;;;;;;13.50;61.20;;;;;;5021887;28;89400;-53
2021/09/25 08:36:44;;;;;;;;;;;13.60;61.00;;;;;;5019479;28;86487;-49
2021/09/25 08:39:10;;;;;;;;;;;13.60;65.80;;;;;;5020005;28;87413;-48
2021/09/25 08:41:36;;;;;;;;;;;13.70;65.30;;;;;;5022835;28;87823;-48
2021/09/25 08:44:02;;;;;;;;;;;13.80;65.40;;;;;;5022452;28;88081;-49
2021/09/25 08:46:27;;;;;;;;;;;13.80;64.90;;;;;;5022814;28;88800;-50
2021/09/25 08:48:54;;;;;;;;;;;13.90;65.40;;;;;;5018938;28;90133;-47
2021/09/25 08:51:19;;;;;;;;;;;14.10;66.00;;;;;;5019652;28;88824;-46
2021/09/25 08:53:45;;;;;;;;;;;14.20;66.00;;;;;;5022375;28;88760;-50
2021/09/25 08:56:12;;;;;;;;;;;14.30;66.20;;;;;;5018912;28;87125;-50
2021/09/25 08:58:38;;;;;;;;;;;14.30;65.50;;;;;;5018837;28;89051;-50
2021/09/25 09:01:04;;;;;;;;;;;14.10;65.20;;;;;;5019012;28;86450;-51
2021/09/25 09:03:33;;;;;;;;;;;14.10;64.80;;;;;;5018662;28;87248;-51
2021/09/25 09:06:05;;;;;;;;;;;14.20;64.10;;;;;;5022461;28;88740;-52
2021/09/25 09:08:30;;;;;;;;;;;14.20;65.60;;;;;;5020782;28;91048;-51
2021/09/25 09:10:56;;;;;;;;;;;14.20;65.40;;;;;;5022677;28;88607;-51
2021/09/25 09:13:22;;;;;;;;;;;14.20;66.10;;;;;;5022558;28;87552;-53
2021/09/25 09:15:49;;;;;;;;;;;14.20;65.80;;;;;;5023925;28;88782;-50
2021/09/25 09:18:15;;;;;;;;;;;14.30;65.50;;;;;;5021942;28;88741;-51
2021/09/25 09:20:59;;;;;;;;;;;14.30;64.50;;;;;;5022174;28;88787;-50
2021/09/25 09:23:24;;;;;;;;;;;14.30;64.10;;;;;;5020339;28;87130;-49
2021/09/25 09:25:50;;;;;;;;;;;14.30;63.80;;;;;;5020205;28;86964;-52
2021/09/25 09:28:22;;;;;;;;;;;14.30;64.90;;;;;;5018895;28;88149;-50
2021/09/25 09:30:50;;;;;;;;;;;14.20;65.10;;;;;;5021771;28;87198;-50
2021/09/25 09:33:29;;;;;;;;;;;14.30;64.60;;;;;;5017732;28;88164;-49
2021/09/25 09:36:13;;;;;;;;;;;14.30;64.20;;;;;;5021061;28;88179;-52
2021/09/25 09:38:49;;;;;;;;;;;14.30;63.80;;;;;;5020974;28;87132;-50
2021/09/25 09:41:15;;;;;;;;;;;14.30;64.00;;;;;;5017205;28;89305;-49
2021/09/25 09:43:41;;;;;;;;;;;14.30;66.40;;;;;;5018040;28;87151;-49
2021/09/25 09:46:06;;;;;;;;;;;14.30;66.00;;;;;;5017672;28;89213;-49
2021/09/25 09:48:32;;;;;;;;;;;14.30;65.40;;;;;;5018191;28;89298;-49
2021/09/25 09:50:58;;;;;;;;;;;14.40;67.40;;;;;;5019869;28;86521;-49
2021/09/25 09:53:24;;;;;;;;;;;14.30;66.00;;;;;;5020273;28;88463;-50
2021/09/25 09:55:49;;;;;;;;;;;14.40;66.00;;;;;;5021249;28;87588;-52
2021/09/25 09:58:15;;;;;;;;;;;14.40;65.60;;;;;;5019797;28;89887;-51
2021/09/25 10:00:40;;;;;;;;;;;14.40;65.60;;;;;;5020086;28;89362;-50
2021/09/25 10:03:08;;;;;;;;;;;14.40;65.70;;;;;;5018365;28;87224;-51
2021/09/25 10:05:34;;;;;;;;;;;14.40;65.50;;;;;;5018418;28;88443;-50
2021/09/25 10:08:00;;;;;;;;;;;14.50;65.20;;;;;;5017383;28;89269;-49
2021/09/25 10:10:26;;;;;;;;;;;14.50;64.80;;;;;;5016159;28;87118;-51
2021/09/25 10:12:52;;;;;;;;;;;14.50;64.60;;;;;;5017334;28;88553;-50
2021/09/25 10:15:18;;;;;;;;;;;14.50;64.60;;;;;;5017400;28;87646;-51
2021/09/25 10:17:44;;;;;;;;;;;14.50;64.80;;;;;;5017958;28;87132;-49
2021/09/25 10:20:11;;;;;;;;;;;14.50;64.70;;;;;;5020780;28;87130;-49
2021/09/25 10:22:37;;;;;;;;;;;14.50;64.40;;;;;;5015972;28;88096;-49
2021/09/25 10:25:05;;;;;;;;;;;14.50;64.30;;;;;;5018341;28;87818;-49
2021/09/25 10:27:35;;;;;;;;;;;14.80;67.60;;;;;;5020922;28;90828;-50
2021/09/25 10:30:05;;;;;;;;;;;14.70;66.50;;;;;;5021141;28;87206;-49
2021/09/25 10:32:41;;;;;;;;;;;14.60;66.10;;;;;;5020882;28;89432;-50
2021/09/25 10:35:15;;;;;;;;;;;14.70;66.50;;;;;;5020011;28;87163;-49
2021/09/25 10:37:45;;;;;;;;;;;14.80;66.20;;;;;;5017744;28;87190;-50
2021/09/25 10:40:17;;;;;;;;;;;14.80;65.90;;;;;;5020386;28;87119;-49
2021/09/25 10:42:42;;;;;;;;;;;14.80;65.40;;;;;;5020137;28;88126;-49
2021/09/25 10:45:13;;;;;;;;;;;14.80;65.80;;;;;;5018758;28;87182;-50
2021/09/25 10:47:39;;;;;;;;;;;14.80;65.20;;;;;;5019457;28;88163;-49
2021/09/25 10:50:14;;;;;;;;;;;14.80;65.10;;;;;;5020911;28;87254;-51
2021/09/25 10:52:40;;;;;;;;;;;14.80;65.10;;;;;;5018415;28;89157;-52
2021/09/25 10:55:19;;;;;;;;;;;15.00;66.30;;;;;;5016392;28;90243;-51
2021/09/25 10:58:04;;;;;;;;;;;14.90;66.00;;;;;;5019861;28;87191;-51
2021/09/25 11:00:30;;;;;;;;;;;14.90;66.30;;;;;;5020125;28;88086;-50
2021/09/25 11:02:55;;;;;;;;;;;15.00;65.80;;;;;;5020389;28;88211;-50
2021/09/25 11:05:39;;;;;;;;;;;15.00;65.90;;;;;;5024178;28;86525;-50
2021/09/25 11:08:13;;;;;;;;;;;15.00;65.90;;;;;;5017571;28;89069;-49
2021/09/25 11:10:58;;;;;;;;;;;15.00;65.70;;;;;;5017247;28;87152;-50
2021/09/25 11:13:42;;;;;;;;;;;15.00;65.60;;;;;;5016298;28;88195;-49
2021/09/25 11:16:08;;;;;;;;;;;15.00;65.30;;;;;;5019995;28;88209;-49
2021/09/25 11:18:49;;;;;;;;;;;15.00;65.40;;;;;;5019239;28;88049;-49
2021/09/25 11:21:14;;;;;;;;;;;15.00;65.50;;;;;;5015726;28;89205;-49
2021/09/25 11:23:44;;;;;;;;;;;15.10;65.40;;;;;;5016817;28;87200;-49
2021/09/25 11:26:10;;;;;;;;;;;15.10;65.30;;;;;;5018796;28;87153;-50
2021/09/25 11:28:35;;;;;;;;;;;15.10;65.20;;;;;;5021488;28;88840;-50
2021/09/25 11:31:08;;;;;;;;;;;15.10;65.10;;;;;;5020321;28;86435;-50
2021/09/25 11:33:35;;;;;;;;;;;15.10;64.90;;;;;;5018460;28;87153;-51
2021/09/25 11:36:05;;;;;;;;;;;15.20;64.90;;;;;;5016607;28;91337;-48
2021/09/25 11:38:31;;;;;;;;;;;15.20;64.90;;;;;;5018378;28;88074;-50
2021/09/25 11:40:58;;;;;;;;;;;15.20;64.90;;;;;;5019304;28;87943;-49
2021/09/25 11:43:23;;;;;;;;;;;15.20;65.10;;;;;;5016641;28;89812;-49
2021/09/25 11:45:51;;;;;;;;;;;15.20;64.90;;;;;;5015835;28;87187;-50
2021/09/25 11:48:18;;;;;;;;;;;15.30;64.80;;;;;;5019317;28;88936;-48
2021/09/25 11:50:46;;;;;;;;;;;15.50;66.90;;;;;;5020935;28;87161;-50
2021/09/25 11:53:16;;;;;;;;;;;15.60;66.80;;;;;;5015497;28;87525;-49
2021/09/25 11:55:43;;;;;;;;;;;15.60;66.40;;;;;;5017071;28;87268;-49
2021/09/25 11:58:14;;;;;;;;;;;15.50;66.20;;;;;;5016918;28;87171;-50
2021/09/25 12:00:45;;;;;;;;;;;15.60;66.40;;;;;;5015639;28;88823;-48
2021/09/25 12:03:11;;;;;;;;;;;15.60;66.20;;;;;;5015200;28;90400;-49
2021/09/25 12:05:37;;;;;;;;;;;15.60;65.80;;;;;;5015326;28;88868;-48
2021/09/25 12:08:04;;;;;;;;;;;15.60;65.50;;;;;;5016593;28;87141;-49
2021/09/25 12:10:30;;;;;;;;;;;15.60;65.90;;;;;;5015912;28;89348;-49
2021/09/25 12:12:57;;;;;;;;;;;15.60;65.90;;;;;;5018994;28;87135;-48
2021/09/25 12:15:24;;;;;;;;;;;15.70;65.60;;;;;;5015093;28;88905;-48
2021/09/25 12:18:08;;;;;;;;;;;15.70;65.60;;;;;;5017291;28;88107;-49
2021/09/25 12:20:33;;;;;;;;;;;15.70;65.40;;;;;;5018550;28;87164;-50
2021/09/25 12:22:59;;;;;;;;;;;15.70;65.40;;;;;;5018828;28;87438;-49
2021/09/25 12:25:25;;;;;;;;;;;15.70;65.40;;;;;;5019817;28;87122;-55
2021/09/25 12:27:50;;;;;;;;;;;16.00;68.20;;;;;;5017104;28;89538;-48
2021/09/25 12:30:17;;;;;;;;;;;16.50;66.30;;;;;;5017529;28;87872;-48
2021/09/25 12:32:57;;;;;;;;;;;16.90;66.20;;;;;;5021816;28;87168;-50
2021/09/25 12:35:23;;;;;;;;;;;17.10;65.40;;;;;;5021426;28;88163;-59
2021/09/25 12:37:49;;;;;;;;;;;17.20;64.40;;;;;;5020566;28;87169;-49
2021/09/25 12:40:16;;;;;;;;;;;17.20;63.70;;;;;;5020542;28;87170;-49
2021/09/25 12:42:41;;;;;;;;;;;17.30;63.10;;;;;;5019862;28;89285;-49
2021/09/25 12:45:09;;;;;;;;;;;17.00;64.00;;;;;;5021735;28;86506;-48
2021/09/25 12:47:35;;;;;;;;;;;16.80;64.80;;;;;;5019477;28;88036;-48
2021/09/25 12:50:16;;;;;;;;;;;16.60;65.20;;;;;;5019886;28;90191;-48
2021/09/25 12:52:41;;;;;;;;;;;16.70;64.80;;;;;;5020624;28;88139;-49
2021/09/25 12:55:10;;;;;;;;;;;16.70;64.60;;;;;;5024036;28;89012;-48
2021/09/25 12:57:36;;;;;;;;;;;16.70;64.60;;;;;;5022308;28;87173;-50
2021/09/25 13:00:04;;;;;;;;;;;16.80;65.20;;;;;;5021194;28;87968;-50
2021/09/25 13:02:30;;;;;;;;;;;16.70;64.50;;;;;;5017986;28;91459;-48
2021/09/25 13:04:57;;;;;;;;;;;16.70;64.70;;;;;;5018236;28;87125;-47
2021/09/25 13:07:25;;;;;;;;;;;16.80;63.20;;;;;;5018138;28;88662;-50
2021/09/25 13:09:52;;;;;;;;;;;17.10;62.20;;;;;;5022207;28;87984;-50
2021/09/25 13:12:25;;;;;;;;;;;16.90;63.10;;;;;;5021847;28;87113;-49
2021/09/25 13:15:07;;;;;;;;;;;16.80;63.80;;;;;;5019793;28;89374;-49
2021/09/25 13:17:34;;;;;;;;;;;16.80;63.90;;;;;;5020738;28;88520;-49
2021/09/25 13:20:01;;;;;;;;;;;16.90;63.80;;;;;;5018480;28;88448;-50
2021/09/25 13:22:26;;;;;;;;;;;16.90;63.90;;;;;;5017464;28;90102;-50
2021/09/25 13:24:52;;;;;;;;;;;16.90;63.90;;;;;;5018203;28;87260;-49
2021/09/25 13:27:17;;;;;;;;;;;16.90;63.50;;;;;;5018713;28;87176;-49
2021/09/25 13:29:43;;;;;;;;;;;16.80;63.90;;;;;;5018281;28;88276;-49
2021/09/25 13:32:09;;;;;;;;;;;16.90;64.20;;;;;;5018754;28;87115;-49
2021/09/25 13:34:34;;;;;;;;;;;16.90;64.10;;;;;;5017888;28;86579;-49
2021/09/25 13:37:00;;;;;;;;;;;16.80;64.90;;;;;;5019715;28;88192;-49
2021/09/25 13:39:27;;;;;;;;;;;16.90;64.30;;;;;;5024913;28;87259;-50
2021/09/25 13:41:53;;;;;;;;;;;17.00;64.20;;;;;;5021094;28;89267;-49
2021/09/25 13:44:18;;;;;;;;;;;17.00;63.70;;;;;;5021879;28;88065;-48
2021/09/25 13:46:44;;;;;;;;;;;18.10;61.00;;;;;;5018676;28;87200;-52
2021/09/25 13:49:09;;;;;;;;;;;18.50;57.20;;;;;;5017843;28;88821;-50
2021/09/25 13:51:35;;;;;;;;;;;18.20;59.70;;;;;;5018819;28;87227;-50
2021/09/25 13:54:01;;;;;;;;;;;17.80;61.30;;;;;;5017827;28;88878;-50
2021/09/25 13:56:27;;;;;;;;;;;17.50;62.60;;;;;;5020137;28;88770;-48
2021/09/25 13:58:52;;;;;;;;;;;17.50;62.90;;;;;;5019419;28;87314;-48
2021/09/25 14:01:18;;;;;;;;;;;17.50;62.90;;;;;;5020336;28;87164;-50
2021/09/25 14:03:43;;;;;;;;;;;17.50;62.80;;;;;;5018205;28;87215;-53
2021/09/25 14:06:10;;;;;;;;;;;17.50;61.60;;;;;;5018005;28;88292;-47
2021/09/25 14:08:36;;;;;;;;;;;17.60;61.70;;;;;;5018110;28;88274;-47
2021/09/25 14:11:02;;;;;;;;;;;17.50;60.70;;;;;;5019519;28;87113;-46
2021/09/25 14:13:27;;;;;;;;;;;17.90;59.60;;;;;;5020387;28;87878;-50